Time;durP1;ratioP1;P1;durP2;ratioP2;P2;SDS_P1;SDS_P2;PMS_P1;PMS_P2;Temp;Humidity;BMP_temperature;BMP_pressure;BME280_temperature;BME280_humidity;BME280_pressure;Samples;Min_cycle;Max_cycle;Signal;HPM_P1;HPM_P2
2023/01/19 00:00:32;;;;;;;1.90;0.55;;;18.50;1.00;;;;;;5012160;28;20556;-40
2023/01/19 00:02:58;;;;;;;3.55;0.68;;;18.50;1.00;;;;;;5010416;28;20434;-41
2023/01/19 00:05:25;;;;;;;3.13;0.43;;;18.50;1.00;;;;;;5012104;28;20050;-40
2023/01/19 00:07:52;;;;;;;9.45;0.55;;;18.40;1.00;;;;;;5012104;28;20537;-40
2023/01/19 00:10:19;;;;;;;3.90;0.57;;;18.30;1.00;;;;;;5011959;28;20042;-39
2023/01/19 00:12:45;;;;;;;1.38;0.75;;;18.30;1.00;;;;;;5011741;28;20489;-40
2023/01/19 00:15:12;;;;;;;1.55;0.65;;;18.30;1.00;;;;;;5015690;28;20038;-40
2023/01/19 00:17:39;;;;;;;3.65;0.47;;;18.20;1.00;;;;;;5016072;28;20049;-40
2023/01/19 00:20:08;;;;;;;2.10;0.75;;;18.20;1.00;;;;;;5014776;28;20482;-40
2023/01/19 00:22:35;;;;;;;2.47;0.90;;;18.10;1.00;;;;;;5015689;28;20065;-40
2023/01/19 00:25:02;;;;;;;2.53;0.60;;;18.10;1.00;;;;;;5015912;28;20088;-40
2023/01/19 00:27:33;;;;;;;2.15;0.30;;;18.00;1.00;;;;;;5015889;28;20493;-40
2023/01/19 00:30:00;;;;;;;1.95;0.60;;;18.00;1.00;;;;;;5015793;28;20042;-40
2023/01/19 00:32:27;;;;;;;3.75;0.52;;;17.90;1.00;;;;;;5015634;28;20100;-40
2023/01/19 00:34:54;;;;;;;1.42;0.50;;;17.90;1.00;;;;;;5015647;28;20125;-40
2023/01/19 00:37:21;;;;;;;2.53;0.35;;;17.80;1.00;;;;;;5015674;28;20038;-40
2023/01/19 00:39:47;;;;;;;2.90;0.35;;;17.80;1.00;;;;;;5015680;28;20041;-40
2023/01/19 00:44:59;;;;;;;1.95;0.55;;;17.70;1.00;;;;;;5015423;28;20056;-40
2023/01/19 00:47:26;;;;;;;1.83;0.57;;;17.70;1.00;;;;;;5015403;28;20038;-39
2023/01/19 00:49:53;;;;;;;2.60;0.65;;;17.60;1.00;;;;;;5015324;28;20077;-40
2023/01/19 00:52:20;;;;;;;4.80;1.48;;;17.60;1.00;;;;;;5015314;28;20076;-39
2023/01/19 00:54:46;;;;;;;5.30;0.93;;;17.60;1.00;;;;;;5015299;28;20046;-40
2023/01/19 00:57:14;;;;;;;3.78;0.50;;;17.60;1.00;;;;;;5015300;28;20556;-40
2023/01/19 00:59:42;;;;;;;2.75;0.73;;;17.50;1.00;;;;;;5015345;28;20057;-40
2023/01/19 01:02:10;;;;;;;3.03;0.65;;;17.50;1.00;;;;;;5015232;28;20122;-40
2023/01/19 01:04:37;;;;;;;7.47;0.60;;;17.40;1.00;;;;;;5015042;28;20042;-39
2023/01/19 01:07:04;;;;;;;4.00;0.60;;;17.40;1.00;;;;;;5015212;28;20042;-40
2023/01/19 01:09:31;;;;;;;1.92;0.40;;;17.40;1.00;;;;;;5015104;28;20038;-40
2023/01/19 01:11:58;;;;;;;1.40;0.47;;;17.30;1.00;;;;;;5014864;28;20042;-40
2023/01/19 01:14:25;;;;;;;1.80;0.57;;;17.30;1.00;;;;;;5014775;28;20500;-39
2023/01/19 01:16:52;;;;;;;1.60;0.35;;;17.30;1.00;;;;;;5015009;28;20037;-39
2023/01/19 01:19:19;;;;;;;3.15;0.45;;;17.20;1.00;;;;;;5015003;28;20077;-39
2023/01/19 01:21:47;;;;;;;2.97;0.80;;;17.20;1.00;;;;;;5014834;28;20132;-39
2023/01/19 01:24:13;;;;;;;2.28;0.60;;;17.10;1.00;;;;;;5023940;23;20041;-41
2023/01/19 01:26:40;;;;;;;2.70;0.65;;;17.10;1.00;;;;;;5011645;28;20042;-40
2023/01/19 01:29:07;;;;;;;3.83;0.45;;;17.10;1.00;;;;;;5014313;28;20072;-40
2023/01/19 01:31:34;;;;;;;1.65;0.77;;;17.10;1.00;;;;;;5014860;28;20042;-40
2023/01/19 01:34:01;;;;;;;3.33;0.50;;;17.00;1.00;;;;;;5014231;28;20037;-40
2023/01/19 01:36:30;;;;;;;3.10;0.73;;;17.00;1.00;;;;;;5014532;28;20046;-40
2023/01/19 01:38:58;;;;;;;3.45;0.73;;;17.00;1.00;;;;;;5014635;28;20045;-40
2023/01/19 01:41:26;;;;;;;4.55;0.90;;;16.90;1.00;;;;;;5014336;28;20052;-40
2023/01/19 01:43:57;;;;;;;4.25;0.90;;;16.90;1.00;;;;;;5014094;28;20050;-41
2023/01/19 01:46:25;;;;;;;2.08;0.50;;;16.90;1.00;;;;;;5014472;28;20081;-40
2023/01/19 01:49:10;;;;;;;4.53;0.70;;;16.80;1.00;;;;;;5014477;28;20069;-40
2023/01/19 01:51:47;;;;;;;4.22;0.52;;;16.80;1.00;;;;;;5014446;28;20045;-40
2023/01/19 01:54:16;;;;;;;5.85;1.27;;;16.80;1.00;;;;;;5014004;28;20370;-40
2023/01/19 01:56:48;;;;;;;3.33;0.60;;;16.70;1.00;;;;;;5014262;28;20034;-40
2023/01/19 01:59:37;;;;;;;3.13;1.17;;;16.70;1.00;;;;;;5014260;28;20053;-40
2023/01/19 02:04:58;;;;;;;2.90;1.20;;;16.60;1.00;;;;;;5013946;28;20046;-40
2023/01/19 02:13:20;;;;;;;3.95;0.80;;;16.50;1.00;;;;;;5013786;28;20468;-40
2023/01/19 02:15:57;;;;;;;2.05;0.55;;;16.50;1.00;;;;;;5013910;28;20042;-40
2023/01/19 02:18:27;;;;;;;1.65;0.63;;;16.50;1.00;;;;;;5013880;28;20061;-40
2023/01/19 02:21:18;;;;;;;2.75;1.10;;;16.50;1.00;;;;;;5013730;28;20061;-40
2023/01/19 02:23:53;;;;;;;5.25;1.00;;;16.40;1.00;;;;;;5013351;28;20049;-40
2023/01/19 02:26:24;;;;;;;1.83;0.65;;;16.40;1.00;;;;;;5013665;28;20045;-40
2023/01/19 02:29:01;;;;;;;2.25;0.68;;;16.40;1.00;;;;;;5013492;28;20477;-40
2023/01/19 02:31:30;;;;;;;8.13;1.08;;;16.30;1.00;;;;;;5011874;28;20045;-40
2023/01/19 02:33:59;;;;;;;2.55;0.73;;;16.30;1.00;;;;;;5013320;28;20049;-40
2023/01/19 02:36:33;;;;;;;2.78;0.85;;;16.30;1.00;;;;;;5013160;28;20049;-40
2023/01/19 02:39:02;;;;;;;5.03;0.70;;;16.30;1.00;;;;;;5013417;28;20046;-40
2023/01/19 02:41:34;;;;;;;3.92;0.82;;;16.20;1.00;;;;;;5012964;28;20046;-40
2023/01/19 02:44:03;;;;;;;6.72;1.30;;;16.20;1.00;;;;;;5012099;28;20121;-40
2023/01/19 02:46:29;;;;;;;6.35;1.15;;;16.20;1.00;;;;;;5012683;28;20049;-41
2023/01/19 02:49:00;;;;;;;2.42;0.60;;;16.10;1.00;;;;;;5012731;28;20053;-40
2023/01/19 02:51:31;;;;;;;5.38;0.77;;;16.10;1.00;;;;;;5012673;28;20502;-40
2023/01/19 02:54:12;;;;;;;5.10;1.17;;;16.10;1.00;;;;;;5012545;28;20049;-40
2023/01/19 02:56:39;;;;;;;4.10;1.05;;;16.00;1.00;;;;;;5012690;28;20490;-40
2023/01/19 02:59:26;;;;;;;4.75;0.80;;;16.00;1.00;;;;;;5012962;28;20038;-40
2023/01/19 03:02:07;;;;;;;7.65;0.90;;;15.90;1.00;;;;;;5012742;28;20061;-40
2023/01/19 03:04:53;;;;;;;4.95;1.25;;;15.90;1.00;;;;;;5012113;28;20489;-40
2023/01/19 03:07:34;;;;;;;5.85;1.35;;;15.90;1.00;;;;;;5011998;28;20045;-40
2023/01/19 03:10:19;;;;;;;2.33;0.82;;;15.80;1.00;;;;;;5012040;28;20045;-39
2023/01/19 03:13:06;;;;;;;4.32;1.25;;;15.80;1.00;;;;;;5011777;28;20557;-40
2023/01/19 03:15:59;;;;;;;4.13;0.98;;;15.80;1.00;;;;;;5012541;28;20046;-40
2023/01/19 03:18:31;;;;;;;4.22;1.25;;;15.70;1.00;;;;;;5012744;28;20445;-40
2023/01/19 03:21:04;;;;;;;3.88;0.95;;;15.70;1.00;;;;;;5011312;28;20095;-40
2023/01/19 03:23:33;;;;;;;4.65;0.88;;;15.70;1.00;;;;;;5011843;28;20041;-40
2023/01/19 03:26:01;;;;;;;4.50;0.90;;;15.70;1.00;;;;;;5012321;28;20089;-40
2023/01/19 03:28:29;;;;;;;2.95;1.30;;;15.70;1.00;;;;;;5012293;28;20073;-40
2023/01/19 03:31:09;;;;;;;2.55;0.98;;;15.60;1.00;;;;;;5012230;28;20548;-40
2023/01/19 03:33:40;;;;;;;4.25;1.10;;;15.60;1.00;;;;;;5012079;28;20141;-40
2023/01/19 03:36:12;;;;;;;4.72;1.25;;;15.60;1.00;;;;;;5012199;28;20401;-40
2023/01/19 03:38:42;;;;;;;4.78;1.08;;;15.60;1.00;;;;;;5012041;28;20484;-40
2023/01/19 03:41:14;;;;;;;6.97;1.27;;;15.50;1.00;;;;;;5011492;28;20042;-40
2023/01/19 03:43:43;;;;;;;3.50;0.95;;;15.50;1.00;;;;;;5011273;28;20050;-40
2023/01/19 03:46:10;;;;;;;4.70;0.80;;;15.50;1.00;;;;;;5011547;28;20065;-40
2023/01/19 03:48:37;;;;;;;4.07;0.80;;;15.50;1.00;;;;;;5011185;28;20145;-39
2023/01/19 03:51:07;;;;;;;6.43;1.33;;;15.40;1.00;;;;;;5012211;28;20161;-40
2023/01/19 03:53:34;;;;;;;5.38;1.00;;;15.40;1.00;;;;;;5011660;28;20118;-40
2023/01/19 03:56:01;;;;;;;8.45;1.55;;;15.40;1.00;;;;;;5011968;28;20052;-40
2023/01/19 03:58:28;;;;;;;6.90;1.25;;;15.40;1.00;;;;;;5011829;28;20823;-40
2023/01/19 04:00:55;;;;;;;5.40;1.50;;;15.40;1.00;;;;;;5011910;28;20054;-40
2023/01/19 04:03:22;;;;;;;3.85;0.82;;;15.30;1.00;;;;;;5011476;28;20141;-40
2023/01/19 04:05:48;;;;;;;5.97;1.65;;;15.30;1.00;;;;;;5011188;28;20050;-40
2023/01/19 04:08:15;;;;;;;3.53;0.93;;;15.30;1.00;;;;;;5011268;28;20076;-40
2023/01/19 04:10:42;;;;;;;4.80;1.05;;;15.30;1.00;;;;;;5011182;28;20068;-40
2023/01/19 04:13:09;;;;;;;2.60;0.82;;;15.20;1.00;;;;;;5010879;28;20037;-40
2023/01/19 04:15:35;;;;;;;6.53;1.20;;;15.20;1.00;;;;;;5010510;28;20042;-40
2023/01/19 04:18:02;;;;;;;5.60;0.93;;;15.20;1.00;;;;;;5011778;28;20044;-40
2023/01/19 04:20:29;;;;;;;6.15;1.15;;;15.20;1.00;;;;;;5011770;28;20053;-40
2023/01/19 04:23:00;;;;;;;4.45;0.90;;;15.20;1.00;;;;;;5011173;28;20433;-40
2023/01/19 04:25:27;;;;;;;4.00;1.50;;;15.20;1.00;;;;;;5011742;28;20577;-40
2023/01/19 04:27:56;;;;;;;5.50;0.68;;;15.10;1.00;;;;;;5011640;28;20120;-40
2023/01/19 04:30:24;;;;;;;3.63;0.93;;;15.10;1.00;;;;;;5011512;28;20046;-40
2023/01/19 04:32:51;;;;;;;5.15;0.90;;;15.10;1.00;;;;;;5009930;28;20540;-40
2023/01/19 04:35:18;;;;;;;8.23;1.63;;;15.10;1.00;;;;;;5011560;28;20050;-40
2023/01/19 04:37:44;;;;;;;2.92;0.80;;;15.10;1.00;;;;;;5011635;28;20401;-40
2023/01/19 04:40:11;;;;;;;5.53;1.40;;;15.00;1.00;;;;;;5011094;28;20509;-40
2023/01/19 04:42:41;;;;;;;5.75;0.90;;;15.00;1.00;;;;;;5010539;28;20076;-40
2023/01/19 04:45:08;;;;;;;5.15;1.50;;;15.00;1.00;;;;;;5010876;28;20556;-40
2023/01/19 04:47:36;;;;;;;8.98;1.10;;;15.00;1.00;;;;;;5010966;28;20137;-41
2023/01/19 04:50:04;;;;;;;3.80;1.13;;;15.00;1.00;;;;;;5011219;28;20042;-40
2023/01/19 04:52:35;;;;;;;7.70;1.40;;;15.00;1.00;;;;;;5011207;28;20038;-41
2023/01/19 04:55:03;;;;;;;3.00;1.00;;;15.00;1.00;;;;;;5011664;28;20409;-40
2023/01/19 04:57:30;;;;;;;5.53;1.23;;;14.90;1.00;;;;;;5011349;28;20046;-40
2023/01/19 04:59:57;;;;;;;5.65;1.25;;;14.90;1.00;;;;;;5012847;28;20045;-40
2023/01/19 05:02:25;;;;;;;6.65;1.75;;;14.90;1.00;;;;;;5013616;28;20050;-40
2023/01/19 05:04:52;;;;;;;3.47;1.10;;;14.90;1.00;;;;;;5014598;28;20477;-40
2023/01/19 05:07:18;;;;;;;5.05;0.90;;;14.90;1.00;;;;;;5029523;28;20042;-40
2023/01/19 05:09:45;;;;;;;6.63;1.05;;;14.90;1.00;;;;;;5014027;28;20084;-40
2023/01/19 05:12:12;;;;;;;5.57;1.00;;;14.80;1.00;;;;;;5014185;28;20084;-40
2023/01/19 05:14:39;;;;;;;4.75;1.25;;;14.80;1.00;;;;;;5011769;28;20045;-40
2023/01/19 05:17:06;;;;;;;2.33;0.70;;;14.80;1.00;;;;;;5014299;28;20049;-41
2023/01/19 05:19:32;;;;;;;3.72;1.13;;;14.80;1.00;;;;;;5013110;28;20048;-40
2023/01/19 05:22:02;;;;;;;3.58;0.68;;;14.80;1.00;;;;;;5013577;28;20119;-41
2023/01/19 05:24:29;;;;;;;7.38;0.90;;;14.80;1.00;;;;;;5012482;28;20061;-40
2023/01/19 05:26:56;;;;;;;6.47;1.23;;;14.80;1.00;;;;;;5014004;28;20042;-41
2023/01/19 05:29:22;;;;;;;9.98;1.02;;;14.80;1.00;;;;;;5013808;28;20116;-41
2023/01/19 05:31:49;;;;;;;14.43;2.40;;;14.70;1.00;;;;;;5014156;28;20045;-40
2023/01/19 05:34:16;;;;;;;7.43;0.80;;;14.70;1.00;;;;;;5014337;28;20129;-40
2023/01/19 05:36:43;;;;;;;6.85;1.35;;;14.70;1.00;;;;;;5014571;28;20045;-40
2023/01/19 05:39:10;;;;;;;8.90;1.35;;;14.70;1.00;;;;;;5014809;28;20045;-40
2023/01/19 05:41:37;;;;;;;8.75;1.52;;;14.70;1.00;;;;;;5014612;28;20041;-41
2023/01/19 05:44:04;;;;;;;5.95;1.05;;;14.70;1.00;;;;;;5014278;28;20049;-41
2023/01/19 05:46:32;;;;;;;7.38;1.48;;;14.60;1.00;;;;;;5014412;28;20050;-41
2023/01/19 05:49:02;;;;;;;5.90;1.40;;;14.70;1.00;;;;;;5013681;28;20045;-41
2023/01/19 05:51:34;;;;;;;8.98;1.02;;;14.60;1.00;;;;;;5012094;28;20038;-41
2023/01/19 05:54:01;;;;;;;5.05;1.45;;;14.60;1.00;;;;;;5011922;28;20073;-40
2023/01/19 05:56:28;;;;;;;9.73;1.52;;;14.60;1.00;;;;;;5011985;28;20050;-41
2023/01/19 05:58:54;;;;;;;4.97;1.40;;;14.60;1.00;;;;;;5014141;28;20038;-41
2023/01/19 06:01:21;;;;;;;6.63;1.15;;;14.60;1.00;;;;;;5012987;28;20050;-41
2023/01/19 06:03:48;;;;;;;5.15;0.98;;;14.60;1.00;;;;;;5012573;28;20132;-41
2023/01/19 06:06:16;;;;;;;7.50;2.00;;;14.50;1.00;;;;;;5014124;28;20042;-41
2023/01/19 06:08:43;;;;;;;5.10;1.45;;;14.50;1.00;;;;;;5012679;28;20045;-40
2023/01/19 06:11:10;;;;;;;21.92;3.28;;;14.50;1.00;;;;;;5012162;28;20112;-41
2023/01/19 06:13:38;;;;;;;5.38;1.42;;;14.50;1.00;;;;;;5013832;28;20080;-41
2023/01/19 06:16:08;;;;;;;5.93;1.42;;;14.50;1.00;;;;;;5014156;28;20112;-41
2023/01/19 06:18:35;;;;;;;7.00;1.27;;;14.50;1.00;;;;;;5013789;28;20041;-41
2023/01/19 06:21:06;;;;;;;6.68;0.90;;;14.40;1.00;;;;;;5013779;28;20076;-41
2023/01/19 06:23:34;;;;;;;10.07;1.02;;;14.50;1.00;;;;;;5013367;28;20141;-40
2023/01/19 06:26:01;;;;;;;5.40;0.98;;;14.40;1.00;;;;;;5012434;28;20057;-41
2023/01/19 06:28:28;;;;;;;8.68;1.23;;;14.40;1.00;;;;;;5013687;28;20049;-41
2023/01/19 06:30:56;;;;;;;7.57;1.23;;;14.40;1.00;;;;;;5013614;28;20042;-41
2023/01/19 06:33:24;;;;;;;8.80;1.23;;;14.40;1.00;;;;;;5012032;28;20088;-41
2023/01/19 06:35:51;;;;;;;3.58;1.05;;;14.40;1.00;;;;;;5013436;28;20517;-41
2023/01/19 06:38:18;;;;;;;4.82;1.30;;;14.40;1.00;;;;;;5012392;28;20061;-41
2023/01/19 06:40:50;;;;;;;3.28;1.00;;;14.30;1.00;;;;;;5013553;28;20112;-41
2023/01/19 06:43:19;;;;;;;11.80;1.45;;;14.30;1.00;;;;;;5013196;28;20500;-41
2023/01/19 06:45:46;;;;;;;6.15;1.15;;;14.30;1.00;;;;;;5013189;28;20042;-41
2023/01/19 06:48:13;;;;;;;7.50;1.50;;;14.30;1.00;;;;;;5013545;28;20375;-41
2023/01/19 06:50:40;;;;;;;5.40;1.70;;;14.30;1.00;;;;;;5013329;28;20402;-41
2023/01/19 06:53:07;;;;;;;7.32;1.25;;;14.30;1.00;;;;;;5012961;28;20042;-40
2023/01/19 06:55:35;;;;;;;5.78;1.45;;;14.30;1.00;;;;;;5013152;28;20441;-41
2023/01/19 06:58:02;;;;;;;6.95;1.05;;;14.30;1.00;;;;;;5013172;28;20441;-40
2023/01/19 07:00:29;;;;;;;4.18;1.17;;;14.30;1.00;;;;;;5013052;28;20045;-41
2023/01/19 07:02:56;;;;;;;5.25;1.40;;;14.20;1.00;;;;;;5012883;28;20461;-41
2023/01/19 07:05:23;;;;;;;3.50;1.67;;;14.20;1.00;;;;;;5011767;28;20042;-40
2023/01/19 07:07:51;;;;;;;4.60;1.33;;;14.20;1.00;;;;;;5013013;28;20046;-40
2023/01/19 07:10:18;;;;;;;6.00;0.75;;;14.20;1.00;;;;;;5012844;28;20410;-40
2023/01/19 07:12:46;;;;;;;4.70;1.08;;;14.20;1.00;;;;;;5012376;28;20456;-40
2023/01/19 07:15:14;;;;;;;6.20;1.20;;;14.20;1.00;;;;;;5012790;28;20124;-39
2023/01/19 07:17:42;;;;;;;7.18;0.80;;;14.20;1.00;;;;;;5013005;28;20416;-40
2023/01/19 07:20:13;;;;;;;5.50;1.55;;;14.10;1.00;;;;;;5012599;28;20056;-40
2023/01/19 07:22:42;;;;;;;5.10;0.95;;;14.10;1.00;;;;;;5011178;28;20038;-40
2023/01/19 07:25:09;;;;;;;2.67;0.77;;;14.10;1.00;;;;;;5022264;23;20061;-39
2023/01/19 07:27:35;;;;;;;4.43;1.10;;;14.10;1.00;;;;;;5012662;28;20406;-40
2023/01/19 07:30:04;;;;;;;5.03;1.13;;;14.10;1.00;;;;;;5012584;28;20081;-40
2023/01/19 07:32:31;;;;;;;4.95;0.80;;;14.10;1.00;;;;;;5012479;28;20038;-39
2023/01/19 07:34:57;;;;;;;6.18;0.85;;;14.10;1.00;;;;;;5012235;28;20034;-40
2023/01/19 07:37:24;;;;;;;4.25;0.85;;;14.10;1.00;;;;;;5012446;28;20603;-40
2023/01/19 07:39:51;;;;;;;3.97;0.93;;;14.10;1.00;;;;;;5012596;28;20049;-40
2023/01/19 07:42:18;;;;;;;2.13;0.77;;;14.00;1.00;;;;;;5012135;28;20057;-40
2023/01/19 07:44:46;;;;;;;5.47;1.15;;;14.00;1.00;;;;;;5010621;28;20498;-39
2023/01/19 07:47:12;;;;;;;8.30;0.95;;;14.00;1.00;;;;;;5007641;28;20077;-39
2023/01/19 07:49:39;;;;;;;5.75;1.50;;;14.00;1.00;;;;;;5006474;28;20391;-40
2023/01/19 07:52:06;;;;;;;5.93;0.80;;;14.00;1.00;;;;;;5007425;28;20441;-40
2023/01/19 07:54:33;;;;;;;6.10;0.70;;;14.00;1.00;;;;;;5004309;28;20096;-40
2023/01/19 07:57:00;;;;;;;6.25;1.13;;;14.00;1.00;;;;;;5006919;28;20049;-40
2023/01/19 07:59:29;;;;;;;3.20;0.98;;;14.00;1.00;;;;;;5012029;28;20056;-40
2023/01/19 08:01:59;;;;;;;3.05;0.90;;;13.90;1.00;;;;;;5011981;28;20281;-40
2023/01/19 08:04:29;;;;;;;3.88;1.63;;;13.90;1.00;;;;;;5011873;28;20042;-40
2023/01/19 08:06:56;;;;;;;5.20;1.27;;;13.90;1.00;;;;;;5010886;28;20108;-40
2023/01/19 08:09:23;;;;;;;7.15;0.80;;;13.90;1.00;;;;;;5012061;28;20080;-41
2023/01/19 08:11:50;;;;;;;2.75;1.30;;;13.90;1.00;;;;;;5012012;28;20057;-41
2023/01/19 08:14:17;;;;;;;6.40;0.70;;;13.90;1.00;;;;;;5011952;28;20088;-41
2023/01/19 08:16:44;;;;;;;7.07;1.20;;;13.90;1.00;;;;;;5011803;28;20557;-41
2023/01/19 08:19:10;;;;;;;3.08;0.70;;;13.80;1.00;;;;;;5012265;28;20556;-40
2023/01/19 08:21:37;;;;;;;5.10;0.85;;;13.90;1.00;;;;;;5011875;28;20073;-38
2023/01/19 08:24:05;;;;;;;2.03;0.55;;;13.90;1.00;;;;;;5011816;28;20486;-39
2023/01/19 08:26:34;;;;;;;4.90;1.00;;;13.80;1.00;;;;;;5011869;28;20038;-40
2023/01/19 08:29:04;;;;;;;2.50;0.85;;;13.90;1.00;;;;;;5011903;28;20125;-39
2023/01/19 08:31:31;;;;;;;4.78;1.00;;;13.80;1.00;;;;;;5011742;28;20116;-39
2023/01/19 08:33:58;;;;;;;1.58;0.60;;;13.80;1.00;;;;;;5011417;28;20038;-39
2023/01/19 08:36:25;;;;;;;5.05;0.57;;;13.80;1.00;;;;;;5015092;28;20041;-38
2023/01/19 08:38:52;;;;;;;2.15;0.52;;;13.80;1.00;;;;;;5015657;28;20042;-39
2023/01/19 08:41:19;;;;;;;5.00;0.60;;;13.80;1.00;;;;;;5015759;28;20068;-39
2023/01/19 08:43:46;;;;;;;7.20;0.63;;;13.80;1.00;;;;;;5015274;28;20042;-39
2023/01/19 08:46:16;;;;;;;3.17;0.65;;;13.80;1.00;;;;;;5015521;28;20057;-39
2023/01/19 08:48:52;;;;;;;4.55;1.73;;;13.80;1.00;;;;;;5015442;28;20050;-39
2023/01/19 08:51:19;;;;;;;3.70;0.80;;;13.80;1.00;;;;;;5015389;28;20038;-39
2023/01/19 08:53:46;;;;;;;2.33;0.57;;;13.80;1.00;;;;;;5015165;28;20041;-39
2023/01/19 08:56:13;;;;;;;2.90;0.80;;;13.70;1.00;;;;;;5015235;28;20042;-39
2023/01/19 08:58:44;;;;;;;3.70;1.00;;;13.70;1.00;;;;;;5015322;28;20510;-40
2023/01/19 09:01:19;;;;;;;3.42;0.95;;;13.70;1.00;;;;;;5015327;28;20046;-40
2023/01/19 09:03:46;;;;;;;2.33;0.50;;;13.70;1.00;;;;;;5014922;28;20140;-39
2023/01/19 09:06:15;;;;;;;4.38;1.02;;;13.70;1.00;;;;;;5015045;28;20096;-39
2023/01/19 09:08:43;;;;;;;3.97;1.10;;;13.70;1.00;;;;;;5015723;28;20056;-40
2023/01/19 09:11:11;;;;;;;4.38;0.73;;;13.70;1.00;;;;;;5014869;28;20052;-39
2023/01/19 09:13:40;;;;;;;3.95;0.60;;;13.70;1.00;;;;;;5014885;28;20478;-39
2023/01/19 09:16:07;;;;;;;0.90;0.32;;;13.70;1.00;;;;;;5014847;28;20042;-40
2023/01/19 09:18:34;;;;;;;3.33;0.77;;;13.70;1.00;;;;;;5014859;28;20464;-40
2023/01/19 09:21:02;;;;;;;2.67;0.77;;;13.70;1.00;;;;;;5014903;28;20038;-40
2023/01/19 09:23:29;;;;;;;2.67;0.63;;;13.70;1.00;;;;;;5014570;28;20052;-39
2023/01/19 09:25:59;;;;;;;1.55;0.52;;;13.70;1.00;;;;;;5014603;28;20053;-40
2023/01/19 09:28:27;;;;;;;2.45;0.73;;;13.70;1.00;;;;;;5013691;28;20050;-40
2023/01/19 09:30:54;;;;;;;3.30;0.85;;;13.70;1.00;;;;;;5014749;28;20068;-40
2023/01/19 09:33:23;;;;;;;4.38;0.47;;;13.70;1.00;;;;;;5014400;28;20081;-40
2023/01/19 09:35:50;;;;;;;1.67;0.45;;;13.70;1.00;;;;;;5014426;28;20073;-40
2023/01/19 09:38:18;;;;;;;8.50;0.82;;;13.70;1.00;;;;;;5014616;28;20053;-40
2023/01/19 09:40:52;;;;;;;3.35;0.70;;;13.70;1.00;;;;;;5014613;28;20124;-39
2023/01/19 09:43:36;;;;;;;2.72;0.50;;;13.70;1.00;;;;;;5014536;28;20034;-39
2023/01/19 09:46:11;;;;;;;2.05;0.40;;;13.70;1.00;;;;;;5013337;28;20152;-39
2023/01/19 09:48:52;;;;;;;3.10;1.00;;;13.70;1.00;;;;;;5014419;28;20726;-39
2023/01/19 09:51:34;;;;;;;1.15;0.45;;;13.70;1.00;;;;;;5014174;28;20565;-40
2023/01/19 09:54:32;;;;;;;3.70;0.77;;;13.70;1.00;;;;;;5012953;28;20486;-39
2023/01/19 09:57:13;;;;;;;3.28;0.47;;;13.80;1.00;;;;;;5014323;28;20048;-39
2023/01/19 09:59:42;;;;;;;4.15;0.47;;;13.70;1.00;;;;;;5014292;28;20038;-40
2023/01/19 10:02:18;;;;;;;3.53;0.60;;;13.80;1.00;;;;;;5014211;28;20092;-40
2023/01/19 10:05:04;;;;;;;2.22;0.43;;;13.80;1.00;;;;;;5013897;28;20485;-40
2023/01/19 10:07:52;;;;;;;1.55;0.60;;;13.80;1.00;;;;;;5014070;28;20046;-40
2023/01/19 10:10:21;;;;;;;3.60;1.02;;;13.80;1.00;;;;;;5013936;28;20038;-40
2023/01/19 10:13:20;;;;;;;2.63;0.30;;;13.80;1.00;;;;;;5013736;28;20065;-40
2023/01/19 10:16:02;;;;;;;2.28;0.60;;;13.80;1.00;;;;;;5013714;28;20055;-40
2023/01/19 10:18:47;;;;;;;3.40;0.73;;;13.80;1.00;;;;;;5013785;28;20068;-40
2023/01/19 10:21:32;;;;;;;1.50;0.45;;;13.80;1.00;;;;;;5013800;28;20050;-41
2023/01/19 10:24:32;;;;;;;2.80;0.30;;;13.80;1.00;;;;;;5013494;28;20038;-40
2023/01/19 10:26:59;;;;;;;2.35;0.20;;;13.80;1.00;;;;;;5013532;28;20568;-40
2023/01/19 10:29:36;;;;;;;1.60;0.40;;;13.80;1.00;;;;;;5013751;28;20073;-40
2023/01/19 10:32:29;;;;;;;4.88;0.63;;;13.80;1.00;;;;;;5013454;28;20048;-41
2023/01/19 10:34:58;;;;;;;2.08;0.57;;;13.80;1.00;;;;;;5013370;28;20054;-40
2023/01/19 10:37:37;;;;;;;1.58;0.30;;;13.80;1.00;;;;;;5013635;28;20404;-40
2023/01/19 10:40:09;;;;;;;4.53;1.00;;;13.80;1.00;;;;;;5013579;28;20081;-41
2023/01/19 10:42:38;;;;;;;3.38;0.43;;;13.80;1.00;;;;;;5013099;28;20050;-40
2023/01/19 10:45:29;;;;;;;3.47;0.65;;;13.80;1.00;;;;;;5013221;28;20042;-40
2023/01/19 10:48:05;;;;;;;2.13;0.55;;;13.80;1.00;;;;;;5013333;28;20046;-41
2023/01/19 10:50:35;;;;;;;3.20;0.60;;;13.80;1.00;;;;;;5013171;28;20061;-41
2023/01/19 10:53:04;;;;;;;3.25;0.65;;;13.80;1.00;;;;;;5011587;28;20116;-40
2023/01/19 10:55:40;;;;;;;4.45;0.55;;;13.80;1.00;;;;;;5013085;28;20486;-41
2023/01/19 10:58:27;;;;;;;1.42;0.30;;;13.80;1.00;;;;;;5012909;28;20048;-41
2023/01/19 11:00:54;;;;;;;2.70;0.30;;;13.80;1.00;;;;;;5012999;28;20054;-40
2023/01/19 11:03:28;;;;;;;1.92;0.70;;;13.80;1.00;;;;;;5012660;28;20436;-40
2023/01/19 11:06:17;;;;;;;1.42;0.30;;;13.80;1.00;;;;;;5013225;28;20468;-41
2023/01/19 11:08:46;;;;;;;1.23;0.40;;;13.80;1.00;;;;;;5013144;28;20088;-42
2023/01/19 11:11:13;;;;;;;4.78;0.75;;;13.80;1.00;;;;;;5012722;28;20042;-40
2023/01/19 11:13:41;;;;;;;1.63;0.57;;;13.80;1.00;;;;;;5012608;28;20046;-40
2023/01/19 11:16:28;;;;;;;3.33;0.73;;;13.80;1.00;;;;;;5012748;28;20049;-40
2023/01/19 11:18:57;;;;;;;1.23;0.22;;;13.80;1.00;;;;;;5012960;28;20041;-41
2023/01/19 11:21:26;;;;;;;3.80;0.40;;;13.80;1.00;;;;;;5012536;28;20383;-39
2023/01/19 11:23:56;;;;;;;3.30;0.82;;;13.80;1.00;;;;;;5012423;28;20097;-39
2023/01/19 11:26:40;;;;;;;2.17;0.50;;;13.80;1.00;;;;;;5012343;28;20073;-39
2023/01/19 11:29:21;;;;;;;;;;;13.80;1.00;;;;;;5013012;28;20053;-40
2023/01/19 11:31:49;;;;;;;1.85;0.60;;;13.80;1.00;;;;;;5012579;28;19925;-40
2023/01/19 11:34:33;;;;;;;2.97;0.80;;;13.80;1.00;;;;;;5012295;28;20041;-40
2023/01/19 11:37:03;;;;;;;1.73;0.40;;;13.80;1.00;;;;;;5012357;28;20042;-38
2023/01/19 11:39:46;;;;;;;2.17;0.82;;;13.80;1.00;;;;;;5012507;28;20046;-41
2023/01/19 11:42:13;;;;;;;2.83;1.05;;;13.80;1.00;;;;;;5012328;28;20045;-39
2023/01/19 11:45:05;;;;;;;2.10;0.55;;;13.80;1.00;;;;;;5012128;28;20045;-39
2023/01/19 11:47:42;;;;;;;1.60;0.55;;;13.90;1.00;;;;;;5012379;28;20401;-40
2023/01/19 11:50:23;;;;;;;1.55;0.30;;;13.80;1.00;;;;;;5012318;28;20058;-40
2023/01/19 11:53:04;;;;;;;2.22;0.60;;;13.90;1.00;;;;;;5011998;28;20125;-40
2023/01/19 11:55:37;;;;;;;2.25;0.45;;;13.90;1.00;;;;;;5012258;28;20042;-40
2023/01/19 11:58:04;;;;;;;1.48;0.20;;;13.90;1.00;;;;;;5012272;28;20046;-40
2023/01/19 12:00:39;;;;;;;3.20;0.68;;;13.90;1.00;;;;;;5012164;28;20038;-40
2023/01/19 12:03:24;;;;;;;3.28;1.20;;;13.90;1.00;;;;;;5012065;28;20137;-40
2023/01/19 12:05:55;;;;;;;3.47;0.73;;;13.90;1.00;;;;;;5011978;28;20042;-40
2023/01/19 12:08:28;;;;;;;2.72;0.52;;;13.90;1.00;;;;;;5010936;28;20417;-40
2023/01/19 12:10:58;;;;;;;1.58;0.52;;;13.90;1.00;;;;;;5011751;28;20120;-40
2023/01/19 12:13:26;;;;;;;2.03;0.70;;;13.90;1.00;;;;;;5011991;28;20038;-40
2023/01/19 12:15:59;;;;;;;1.83;0.50;;;13.90;1.00;;;;;;5012048;28;20038;-39
2023/01/19 12:18:42;;;;;;;4.90;0.52;;;13.90;1.00;;;;;;5010779;28;20449;-40
2023/01/19 12:21:09;;;;;;;2.80;0.40;;;13.90;1.00;;;;;;5011994;28;20112;-40
2023/01/19 12:23:46;;;;;;;2.25;0.50;;;13.90;1.00;;;;;;5011712;28;20042;-40
2023/01/19 12:26:18;;;;;;;2.72;0.50;;;13.90;1.00;;;;;;5011663;28;20041;-39
2023/01/19 12:28:49;;;;;;;4.43;0.50;;;13.90;1.00;;;;;;5011782;28;20490;-40
2023/01/19 12:31:18;;;;;;;3.40;0.60;;;13.90;1.00;;;;;;5012048;28;20100;-40
2023/01/19 12:33:45;;;;;;;1.60;0.52;;;13.90;1.00;;;;;;5010504;28;20383;-40
2023/01/19 12:36:15;;;;;;;0.82;0.35;;;13.90;1.00;;;;;;5011798;28;20042;-39
2023/01/19 12:38:53;;;;;;;5.75;0.60;;;13.90;1.00;;;;;;5010610;28;20088;-40
2023/01/19 12:41:33;;;;;;;2.92;0.57;;;13.90;1.00;;;;;;5011696;28;20561;-40
2023/01/19 12:44:09;;;;;;;2.60;0.85;;;13.90;1.00;;;;;;5011470;28;20053;-40
2023/01/19 12:46:37;;;;;;;0.90;0.35;;;13.90;1.00;;;;;;5011593;28;20104;-40
2023/01/19 12:49:24;;;;;;;4.63;0.90;;;13.90;1.00;;;;;;5012008;28;20124;-39
2023/01/19 12:52:10;;;;;;;1.05;0.30;;;13.90;1.00;;;;;;5011410;28;20062;-38
2023/01/19 12:54:42;;;;;;;3.15;0.30;;;13.90;1.00;;;;;;5011571;28;20497;-39
2023/01/19 12:57:25;;;;;;;4.38;0.50;;;13.90;1.00;;;;;;5011585;28;20052;-39
2023/01/19 13:00:03;;;;;;;1.88;0.40;;;13.80;1.00;;;;;;5011776;28;20083;-40
2023/01/19 13:02:39;;;;;;;3.92;0.63;;;13.80;1.00;;;;;;5011588;28;20386;-39
2023/01/19 13:05:15;;;;;;;4.43;0.73;;;13.80;1.00;;;;;;5011535;28;20080;-39
2023/01/19 13:08:00;;;;;;;1.95;0.60;;;13.80;1.00;;;;;;5011618;28;20563;-39
2023/01/19 13:10:52;;;;;;;4.18;0.70;;;13.80;1.00;;;;;;5010368;28;20050;-39
2023/01/19 13:13:21;;;;;;;1.55;0.55;;;13.80;1.00;;;;;;5011233;28;20041;-39
2023/01/19 13:15:48;;;;;;;2.15;0.30;;;13.80;1.00;;;;;;5011377;28;20054;-39
2023/01/19 13:18:23;;;;;;;5.90;1.17;;;13.80;1.00;;;;;;5011576;28;20045;-39
2023/01/19 13:20:57;;;;;;;3.28;0.70;;;13.80;1.00;;;;;;5013023;28;20092;-39
2023/01/19 13:23:27;;;;;;;1.35;0.68;;;13.80;1.00;;;;;;5014769;28;20093;-40
2023/01/19 13:26:01;;;;;;;1.17;0.50;;;13.80;1.00;;;;;;5014763;28;20464;-39
2023/01/19 13:28:39;;;;;;;1.38;0.57;;;13.80;1.00;;;;;;5014862;28;20053;-40